createdAt,value
2018-12-07T00:01:56.991Z,12.00
2018-12-07T00:04:26.322Z,12.00
2018-12-07T00:06:55.631Z,12.00
2018-12-07T00:09:25.195Z,12.00
2018-12-07T00:11:54.560Z,12.00
2018-12-07T00:14:23.987Z,11.90
2018-12-07T00:16:53.255Z,11.90
2018-12-07T00:19:22.732Z,11.80
2018-12-07T00:21:52.057Z,11.80
2018-12-07T00:24:21.571Z,11.70
2018-12-07T00:26:50.882Z,11.70
2018-12-07T00:29:20.164Z,11.70
2018-12-07T00:31:49.480Z,11.70
2018-12-07T00:34:18.772Z,11.60
2018-12-07T00:36:48.076Z,11.60
2018-12-07T00:39:17.388Z,11.50
2018-12-07T00:41:46.664Z,11.60
2018-12-07T00:44:15.948Z,11.60
2018-12-07T00:46:45.240Z,11.60
2018-12-07T00:49:14.551Z,11.70
2018-12-07T00:51:43.829Z,11.80
2018-12-07T00:54:13.143Z,11.80
2018-12-07T00:56:42.428Z,11.70
2018-12-07T00:59:11.775Z,11.80
2018-12-07T01:01:41.063Z,11.80
2018-12-07T01:04:10.295Z,11.80
2018-12-07T01:06:39.657Z,11.80
2018-12-07T01:09:08.917Z,11.80
2018-12-07T01:11:38.366Z,11.80
2018-12-07T01:14:07.662Z,11.80
2018-12-07T01:16:36.962Z,11.80
2018-12-07T01:19:06.299Z,11.70
2018-12-07T01:21:36.567Z,11.70
2018-12-07T01:24:05.871Z,11.70
2018-12-07T01:26:35.459Z,11.70
2018-12-07T01:29:04.819Z,11.60
2018-12-07T01:31:34.101Z,11.60
2018-12-07T01:34:03.406Z,11.60
2018-12-07T01:36:32.697Z,11.60
2018-12-07T01:39:02.791Z,11.60
2018-12-07T01:41:32.074Z,11.70
2018-12-07T01:44:01.358Z,11.70
2018-12-07T01:46:30.654Z,11.80
2018-12-07T01:48:59.957Z,11.70
2018-12-07T01:51:29.248Z,11.70
2018-12-07T01:53:58.535Z,11.60
2018-12-07T01:56:27.861Z,11.50
2018-12-07T01:58:57.148Z,11.40
2018-12-07T02:01:26.543Z,11.40
2018-12-07T02:03:56.129Z,11.30
2018-12-07T02:06:25.433Z,11.30
2018-12-07T02:08:54.713Z,11.30
2018-12-07T02:11:24.016Z,11.30
2018-12-07T02:13:53.304Z,11.30
2018-12-07T02:16:22.593Z,11.20
2018-12-07T02:18:51.900Z,11.20
2018-12-07T02:21:21.183Z,11.20
2018-12-07T02:23:50.496Z,11.20
2018-12-07T02:26:19.772Z,11.20
2018-12-07T02:28:49.073Z,11.20
2018-12-07T02:31:18.387Z,11.30
2018-12-07T02:33:47.704Z,11.20
2018-12-07T02:36:17.007Z,11.20
2018-12-07T02:38:46.340Z,11.30
2018-12-07T02:41:15.641Z,11.30
2018-12-07T02:43:44.931Z,11.20
2018-12-07T02:46:14.220Z,11.30
2018-12-07T02:48:43.513Z,11.30
2018-12-07T02:51:12.819Z,11.30
2018-12-07T02:53:42.097Z,11.20
2018-12-07T02:56:11.422Z,11.30
2018-12-07T02:58:40.707Z,11.20
2018-12-07T03:01:10.023Z,11.30
2018-12-07T03:03:39.317Z,11.40
2018-12-07T03:06:08.605Z,11.40
2018-12-07T03:08:37.940Z,11.50
2018-12-07T03:11:07.508Z,11.60
2018-12-07T03:13:36.808Z,11.70
2018-12-07T03:16:06.091Z,11.80
2018-12-07T03:18:35.416Z,12.00
2018-12-07T03:21:04.760Z,12.10
2018-12-07T03:23:34.636Z,12.20
2018-12-07T03:26:03.953Z,12.20
2018-12-07T03:28:33.247Z,12.30
2018-12-07T03:31:02.561Z,12.40
2018-12-07T03:33:31.857Z,12.50
2018-12-07T03:36:01.167Z,12.60
2018-12-07T03:38:30.462Z,12.60
2018-12-07T03:40:59.802Z,12.60
2018-12-07T03:43:29.106Z,12.50
2018-12-07T03:45:58.409Z,12.50
2018-12-07T03:48:28.487Z,12.60
2018-12-07T03:50:57.786Z,12.60
2018-12-07T03:53:27.260Z,12.60
2018-12-07T03:55:56.552Z,12.60
2018-12-07T03:58:25.891Z,12.50
2018-12-07T04:00:55.455Z,12.50
2018-12-07T04:03:24.756Z,12.50
2018-12-07T04:05:54.057Z,12.50
2018-12-07T04:08:23.811Z,12.50
2018-12-07T04:10:53.118Z,12.50
2018-12-07T04:13:22.399Z,12.50
2018-12-07T04:15:52.177Z,12.50
2018-12-07T04:18:21.469Z,12.50
2018-12-07T04:20:50.783Z,12.50
2018-12-07T04:23:20.072Z,12.40
2018-12-07T04:25:49.386Z,12.40
2018-12-07T04:28:18.663Z,12.40
2018-12-07T04:30:47.950Z,12.40
2018-12-07T04:33:17.314Z,12.40
2018-12-07T04:35:46.598Z,12.40
2018-12-07T04:38:15.888Z,12.50
2018-12-07T04:40:45.187Z,12.40
2018-12-07T04:43:14.487Z,12.40
2018-12-07T04:45:43.786Z,12.50
2018-12-07T04:48:13.093Z,12.50
2018-12-07T04:50:42.384Z,12.50
2018-12-07T04:53:12.456Z,12.50
2018-12-07T04:55:41.780Z,12.50
2018-12-07T04:58:11.059Z,12.50
2018-12-07T05:00:40.454Z,12.50
2018-12-07T05:03:09.822Z,12.50
2018-12-07T05:05:39.126Z,12.50
2018-12-07T05:08:08.439Z,12.40
2018-12-07T05:10:37.727Z,12.40
2018-12-07T05:13:07.059Z,12.40
2018-12-07T05:15:36.394Z,12.30
2018-12-07T05:18:05.764Z,12.40
2018-12-07T05:20:35.102Z,12.40
2018-12-07T05:23:04.656Z,12.30
2018-12-07T05:25:34.217Z,12.40
2018-12-07T05:28:03.530Z,12.40
2018-12-07T05:30:32.802Z,12.50
2018-12-07T05:33:02.095Z,12.50
2018-12-07T05:35:31.463Z,12.40
2018-12-07T05:38:01.019Z,12.40
2018-12-07T05:40:31.456Z,12.40
2018-12-07T05:43:00.756Z,12.40
2018-12-07T05:45:30.152Z,12.40
2018-12-07T05:47:59.415Z,12.30
2018-12-07T05:50:28.722Z,12.30
2018-12-07T05:52:58.448Z,12.30
2018-12-07T05:55:27.830Z,12.40
2018-12-07T05:57:57.119Z,12.40
2018-12-07T06:00:26.404Z,12.40
2018-12-07T06:02:55.695Z,12.30
2018-12-07T06:05:25.031Z,12.40
2018-12-07T06:07:54.337Z,12.40
2018-12-07T06:10:23.784Z,12.30
2018-12-07T06:12:55.162Z,12.30
2018-12-07T06:15:24.484Z,12.40
2018-12-07T06:17:53.860Z,12.30
2018-12-07T06:20:23.186Z,12.40
2018-12-07T06:22:52.453Z,12.40
2018-12-07T06:25:21.772Z,12.30
2018-12-07T06:27:51.100Z,12.30
2018-12-07T06:30:20.752Z,12.30
2018-12-07T06:32:50.070Z,12.30
2018-12-07T06:35:19.355Z,12.40
2018-12-07T06:37:48.643Z,12.30
2018-12-07T06:40:17.938Z,12.30
2018-12-07T06:42:47.248Z,12.30
2018-12-07T06:45:16.537Z,12.30
2018-12-07T06:47:45.828Z,12.30
2018-12-07T06:50:15.175Z,12.40
2018-12-07T06:52:44.488Z,12.40
2018-12-07T06:55:13.829Z,12.40
2018-12-07T06:57:43.766Z,12.40
2018-12-07T07:00:13.112Z,12.40
2018-12-07T07:02:42.403Z,12.30
2018-12-07T07:05:11.712Z,12.30
2018-12-07T07:07:41.003Z,12.30
2018-12-07T07:10:10.389Z,12.30
2018-12-07T07:12:39.681Z,12.20
2018-12-07T07:15:09.054Z,12.20
2018-12-07T07:17:38.693Z,12.20
2018-12-07T07:20:08.074Z,12.10
2018-12-07T07:22:37.644Z,12.20
2018-12-07T07:25:07.652Z,12.20
2018-12-07T07:27:36.994Z,12.20
2018-12-07T07:30:07.189Z,12.20
2018-12-07T07:32:36.516Z,12.20
2018-12-07T07:35:05.982Z,12.20
2018-12-07T07:37:35.290Z,12.20
2018-12-07T07:40:04.916Z,12.20
2018-12-07T07:42:34.386Z,12.20
2018-12-07T07:45:03.756Z,12.20
2018-12-07T07:47:33.058Z,12.10
2018-12-07T07:50:02.348Z,12.10
2018-12-07T07:52:31.626Z,12.10
2018-12-07T07:55:00.931Z,12.10
2018-12-07T07:57:30.487Z,12.10
2018-12-07T08:00:00.152Z,12.20
2018-12-07T08:02:29.435Z,12.30
2018-12-07T08:04:58.752Z,12.40
2018-12-07T08:07:28.022Z,12.50
2018-12-07T08:09:57.342Z,12.50
2018-12-07T08:12:26.646Z,12.50
2018-12-07T08:14:55.925Z,12.60
2018-12-07T08:17:25.239Z,12.60
2018-12-07T08:19:54.543Z,12.50
2018-12-07T08:22:23.857Z,12.50
2018-12-07T08:24:53.158Z,12.50
2018-12-07T08:27:22.565Z,12.50
2018-12-07T08:29:51.854Z,12.50
2018-12-07T08:32:21.235Z,12.50
2018-12-07T08:34:50.542Z,12.50
2018-12-07T08:37:19.830Z,12.40
2018-12-07T08:39:49.141Z,12.50
2018-12-07T08:42:18.855Z,12.50
2018-12-07T08:44:48.178Z,12.50
2018-12-07T08:47:18.380Z,12.50
2018-12-07T08:49:56.512Z,12.40
2018-12-07T08:52:25.804Z,12.40
2018-12-07T08:54:55.117Z,12.40
2018-12-07T08:57:24.405Z,12.50
2018-12-07T08:59:53.725Z,12.50
2018-12-07T09:02:23.017Z,12.50
2018-12-07T09:04:52.322Z,12.50
2018-12-07T09:07:21.636Z,12.50
2018-12-07T09:09:50.918Z,12.40
2018-12-07T09:12:20.331Z,12.50
2018-12-07T09:14:49.626Z,12.50
2018-12-07T09:17:18.898Z,12.40
2018-12-07T09:19:48.167Z,12.50
2018-12-07T09:22:17.451Z,12.40
2018-12-07T09:24:46.766Z,12.40
2018-12-07T09:27:16.052Z,12.40
2018-12-07T09:29:45.359Z,12.30
2018-12-07T09:32:14.639Z,12.30
2018-12-07T09:34:44.403Z,12.30
2018-12-07T09:37:13.703Z,12.30
2018-12-07T09:39:43.024Z,12.30
2018-12-07T09:42:14.332Z,12.20
2018-12-07T09:44:43.620Z,12.20
2018-12-07T09:47:12.925Z,12.20
2018-12-07T09:49:42.231Z,12.30
2018-12-07T09:52:11.530Z,12.30
2018-12-07T09:54:40.825Z,12.30
2018-12-07T09:57:10.126Z,12.30
2018-12-07T09:59:39.434Z,12.30
2018-12-07T10:02:08.729Z,12.30
2018-12-07T10:04:38.303Z,12.30
2018-12-07T10:07:07.593Z,12.20
2018-12-07T10:09:36.901Z,12.20
2018-12-07T10:12:06.240Z,12.20
2018-12-07T10:14:35.504Z,12.20
2018-12-07T10:17:04.839Z,12.20
2018-12-07T10:19:34.083Z,12.20
2018-12-07T10:22:03.413Z,12.30
2018-12-07T10:24:32.708Z,12.30
2018-12-07T10:27:05.337Z,12.30
2018-12-07T10:29:34.689Z,12.30
2018-12-07T10:32:04.280Z,12.30
2018-12-07T10:34:33.599Z,12.30
2018-12-07T10:37:02.895Z,12.30
2018-12-07T10:39:32.195Z,12.40
2018-12-07T10:42:01.464Z,12.30
2018-12-07T10:44:30.772Z,12.30
2018-12-07T10:47:00.089Z,12.30
2018-12-07T10:49:30.554Z,12.30
2018-12-07T10:52:00.246Z,12.30
2018-12-07T10:54:29.551Z,12.30
2018-12-07T10:56:58.862Z,12.30
2018-12-07T10:59:29.077Z,12.40
2018-12-07T11:02:03.835Z,12.30
2018-12-07T11:04:48.058Z,12.30
2018-12-07T11:07:22.839Z,12.40
2018-12-07T11:09:57.707Z,12.40
2018-12-07T11:12:32.531Z,12.40
2018-12-07T11:15:08.248Z,12.40
2018-12-07T11:17:43.017Z,12.50
2018-12-07T11:20:17.852Z,12.50
2018-12-07T11:22:53.598Z,12.50
2018-12-07T11:28:29.389Z,12.50
2018-12-07T11:31:04.114Z,12.50
2018-12-07T11:33:50.848Z,12.50
2018-12-07T11:36:20.166Z,12.40
2018-12-07T11:38:49.461Z,12.40
2018-12-07T11:41:20.486Z,12.40
2018-12-07T11:43:50.814Z,12.30
2018-12-07T11:46:20.109Z,12.40
2018-12-07T11:48:49.337Z,12.40
2018-12-07T11:51:18.715Z,12.40
2018-12-07T11:53:47.976Z,12.30
2018-12-07T11:56:17.327Z,12.30
2018-12-07T11:58:46.651Z,12.40
2018-12-07T12:01:15.998Z,12.40
2018-12-07T12:03:45.301Z,12.50
2018-12-07T12:06:14.595Z,12.50
2018-12-07T12:08:43.901Z,12.60
2018-12-07T12:11:13.196Z,12.50
2018-12-07T12:13:42.538Z,12.50
2018-12-07T12:16:11.823Z,12.50
2018-12-07T12:18:41.118Z,12.60
2018-12-07T12:21:10.516Z,12.60
2018-12-07T12:23:39.820Z,12.60
2018-12-07T12:26:09.182Z,12.60
2018-12-07T12:28:38.579Z,12.60
2018-12-07T12:31:08.059Z,12.60
2018-12-07T12:33:37.421Z,12.60
2018-12-07T13:18:39.771Z,12.50
2018-12-07T13:24:00.341Z,12.60
2018-12-07T13:26:30.204Z,12.60
2018-12-07T13:29:07.815Z,12.50
2018-12-07T13:31:44.264Z,12.60
2018-12-07T13:34:44.115Z,12.50
2018-12-07T13:37:41.071Z,12.50
2018-12-07T13:40:16.044Z,12.50
2018-12-07T13:46:19.513Z,12.40
2018-12-07T13:48:54.307Z,12.40
2018-12-07T13:57:34.765Z,12.50
2018-12-07T14:03:27.816Z,12.60
2018-12-07T14:06:01.637Z,12.50
2018-12-07T14:08:50.652Z,12.50
2018-12-07T14:11:37.861Z,12.40
2018-12-07T14:17:29.576Z,12.30
2018-12-07T14:19:59.070Z,12.20
2018-12-07T14:22:28.801Z,12.20
2018-12-07T14:24:58.491Z,12.00
2018-12-07T14:27:28.169Z,12.00
2018-12-07T14:29:57.838Z,12.00
2018-12-07T14:32:27.519Z,12.00
2018-12-07T14:34:57.047Z,12.00
2018-12-07T14:37:26.763Z,12.00
2018-12-07T14:39:56.348Z,11.90
2018-12-07T14:42:26.041Z,11.90
2018-12-07T14:44:55.624Z,11.80
2018-12-07T14:47:25.290Z,11.70
2018-12-07T14:49:54.940Z,11.60
2018-12-07T14:52:24.616Z,11.60
2018-12-07T14:54:54.208Z,11.70
2018-12-07T14:57:23.911Z,11.70
2018-12-07T14:59:53.569Z,11.70
2018-12-07T15:02:23.362Z,11.70
2018-12-07T15:04:53.665Z,11.70
2018-12-07T15:07:23.519Z,11.70
2018-12-07T15:09:53.120Z,11.70
2018-12-07T15:12:22.806Z,11.70
2018-12-07T15:14:52.677Z,11.70
2018-12-07T15:17:22.360Z,11.80
2018-12-07T15:19:52.089Z,11.80
2018-12-07T15:22:21.903Z,11.80
2018-12-07T15:24:51.499Z,11.80
2018-12-07T15:27:21.015Z,11.70
2018-12-07T15:29:50.660Z,11.70
2018-12-07T15:32:20.207Z,11.60
2018-12-07T15:34:49.718Z,11.60
2018-12-07T15:37:19.461Z,11.50
2018-12-07T15:39:49.051Z,11.50
2018-12-07T15:42:18.799Z,11.50
2018-12-07T15:44:48.650Z,11.50
2018-12-07T15:47:18.392Z,11.50
2018-12-07T15:49:48.168Z,11.50
2018-12-07T15:52:17.717Z,11.50
2018-12-07T15:54:47.462Z,11.50
2018-12-07T15:57:17.071Z,11.50
2018-12-07T15:59:46.819Z,11.40
2018-12-07T16:02:16.597Z,11.40
2018-12-07T16:04:46.299Z,11.40
2018-12-07T16:07:15.808Z,11.40
2018-12-07T16:09:45.642Z,11.40
2018-12-07T16:12:15.525Z,11.40
2018-12-07T16:14:45.282Z,11.40
2018-12-07T16:17:15.023Z,11.40
2018-12-07T16:19:44.818Z,11.30
2018-12-07T16:22:14.509Z,11.30
2018-12-07T16:24:45.419Z,11.30
2018-12-07T16:27:14.938Z,11.20
2018-12-07T16:29:44.560Z,11.20
2018-12-07T16:32:14.166Z,11.10
2018-12-07T16:34:43.943Z,11.10
2018-12-07T16:37:13.762Z,11.10
2018-12-07T16:39:43.463Z,11.10
2018-12-07T16:42:13.110Z,11.00
2018-12-07T16:44:42.792Z,11.00
2018-12-07T16:47:12.531Z,10.90
2018-12-07T16:49:42.191Z,10.90
2018-12-07T16:52:11.868Z,10.90
2018-12-07T16:54:41.799Z,10.90
2018-12-07T16:57:11.387Z,10.90
2018-12-07T16:59:43.304Z,10.90
2018-12-07T17:02:13.061Z,10.90
2018-12-07T17:04:42.733Z,10.90
2018-12-07T17:07:12.689Z,10.90
2018-12-07T17:09:42.405Z,10.80
2018-12-07T17:12:12.256Z,10.80
2018-12-07T17:14:41.996Z,10.80
2018-12-07T17:17:11.729Z,10.80
2018-12-07T17:19:41.405Z,10.70
2018-12-07T17:22:11.180Z,10.70
2018-12-07T17:24:40.754Z,10.70
2018-12-07T17:27:10.256Z,10.70
2018-12-07T17:29:39.832Z,10.70
2018-12-07T17:32:10.127Z,10.70
2018-12-07T17:34:39.991Z,10.70
2018-12-07T17:37:09.959Z,10.70
2018-12-07T17:39:39.558Z,10.60
2018-12-07T17:42:09.118Z,10.70
2018-12-07T17:44:38.792Z,10.60
2018-12-07T17:47:08.646Z,10.60
2018-12-07T17:49:38.292Z,10.60
2018-12-07T17:52:08.014Z,10.60
2018-12-07T17:54:37.710Z,10.60
2018-12-07T17:57:07.391Z,10.50
2018-12-07T17:59:37.022Z,10.50
2018-12-07T18:02:06.564Z,10.50
2018-12-07T18:04:35.883Z,10.50
2018-12-07T18:07:05.240Z,10.50
2018-12-07T18:09:34.821Z,10.50
2018-12-07T18:12:04.813Z,10.50
2018-12-07T18:14:34.520Z,10.50
2018-12-07T18:17:04.171Z,10.50
2018-12-07T18:19:34.074Z,10.50
2018-12-07T18:22:03.920Z,10.50
2018-12-07T18:24:33.718Z,10.50
2018-12-07T18:27:03.573Z,10.50
2018-12-07T18:29:33.679Z,10.50
2018-12-07T18:32:03.236Z,10.50
2018-12-07T18:34:32.968Z,10.50
2018-12-07T18:37:02.709Z,10.50
2018-12-07T18:39:32.225Z,10.50
2018-12-07T18:42:01.704Z,10.50
2018-12-07T18:44:31.514Z,10.50
2018-12-07T18:47:01.636Z,10.60
2018-12-07T18:49:31.329Z,10.50
2018-12-07T18:52:01.069Z,10.50
2018-12-07T18:54:30.808Z,10.50
2018-12-07T18:57:00.454Z,10.60
2018-12-07T18:59:30.302Z,10.60
2018-12-07T19:01:59.917Z,10.80
2018-12-07T19:04:29.634Z,10.90
2018-12-07T19:06:59.141Z,10.80
2018-12-07T19:09:28.682Z,10.80
2018-12-07T19:11:59.266Z,10.80
2018-12-07T19:14:29.051Z,10.70
2018-12-07T19:16:59.046Z,10.70
2018-12-07T19:19:28.562Z,10.60
2018-12-07T19:21:57.849Z,10.60
2018-12-07T19:24:27.191Z,10.60
2018-12-07T19:26:56.766Z,10.50
2018-12-07T19:29:26.493Z,10.40
2018-12-07T19:31:56.430Z,10.30
2018-12-07T19:34:26.084Z,10.20
2018-12-07T19:36:55.882Z,10.10
2018-12-07T19:39:25.760Z,10.00
2018-12-07T19:41:55.271Z,9.90
2018-12-07T19:44:24.584Z,9.80
2018-12-07T19:46:54.067Z,9.80
2018-12-07T19:49:24.017Z,9.70
2018-12-07T19:51:53.588Z,9.70
2018-12-07T19:54:23.334Z,9.60
2018-12-07T19:56:53.282Z,9.60
2018-12-07T19:59:22.848Z,9.60
2018-12-07T20:01:52.673Z,9.60
2018-12-07T20:04:22.751Z,9.60
2018-12-07T20:06:53.426Z,9.60
2018-12-07T20:09:24.070Z,9.60
2018-12-07T20:11:53.830Z,9.60
2018-12-07T20:14:23.535Z,9.60
2018-12-07T20:16:52.996Z,9.60
2018-12-07T20:19:22.488Z,9.50
2018-12-07T20:21:52.070Z,9.50
2018-12-07T20:24:22.032Z,9.50
2018-12-07T20:26:51.457Z,9.40
2018-12-07T20:29:21.021Z,9.40
2018-12-07T20:31:50.633Z,9.30
2018-12-07T20:34:21.186Z,9.20
2018-12-07T20:36:50.873Z,9.20
2018-12-07T20:39:20.434Z,9.10
2018-12-07T20:41:51.001Z,9.10
2018-12-07T20:44:20.680Z,9.00
2018-12-07T20:46:50.096Z,9.00
2018-12-07T20:49:19.897Z,8.90
2018-12-07T20:51:49.562Z,8.90
2018-12-07T20:54:18.967Z,8.80
2018-12-07T20:56:59.412Z,8.70
2018-12-07T20:59:29.317Z,8.70
2018-12-07T21:01:58.822Z,8.60
2018-12-07T21:04:33.553Z,8.60
2018-12-07T21:07:18.215Z,8.60
2018-12-07T21:09:47.767Z,8.60
2018-12-07T21:12:39.444Z,8.60
2018-12-07T21:15:09.159Z,8.60
2018-12-07T21:17:39.105Z,8.60
2018-12-07T21:20:09.896Z,8.60
2018-12-07T21:22:39.722Z,8.60
2018-12-07T21:25:09.632Z,8.60
2018-12-07T21:27:39.293Z,8.70
2018-12-07T21:30:37.596Z,8.60
2018-12-07T21:33:07.157Z,8.60
2018-12-07T21:35:54.315Z,8.60
2018-12-07T21:38:26.667Z,8.60
2018-12-07T21:40:56.419Z,8.60
2018-12-07T21:43:26.244Z,8.60
2018-12-07T21:45:55.776Z,8.60
2018-12-07T21:48:25.352Z,8.50
2018-12-07T21:51:00.770Z,8.50
2018-12-07T21:53:30.155Z,8.50
2018-12-07T21:55:59.981Z,8.50
2018-12-07T21:58:29.810Z,8.50
2018-12-07T22:00:59.654Z,8.50
2018-12-07T22:03:29.525Z,8.50
2018-12-07T22:05:59.163Z,8.50
2018-12-07T22:08:28.496Z,8.40
2018-12-07T22:10:58.093Z,8.50
2018-12-07T22:13:30.890Z,8.60
2018-12-07T22:16:02.659Z,8.60
2018-12-07T22:18:32.289Z,8.60
2018-12-07T22:21:02.114Z,8.60
2018-12-07T22:23:31.965Z,8.60
2018-12-07T22:26:01.707Z,8.50
2018-12-07T22:28:31.574Z,8.40
2018-12-07T22:31:01.735Z,8.40
2018-12-07T22:33:31.348Z,8.30
2018-12-07T22:36:00.958Z,8.30
2018-12-07T22:38:30.842Z,8.30
2018-12-07T22:41:00.905Z,8.30
2018-12-07T22:43:30.648Z,8.30
2018-12-07T22:45:59.987Z,8.30
2018-12-07T22:48:29.568Z,8.30
2018-12-07T22:50:59.104Z,8.30
2018-12-07T22:53:28.364Z,8.20
2018-12-07T22:55:58.005Z,8.30
2018-12-07T22:58:27.295Z,8.10
2018-12-07T23:00:57.355Z,8.20
2018-12-07T23:03:26.626Z,8.20
2018-12-07T23:05:55.896Z,8.20
2018-12-07T23:08:25.417Z,8.20
2018-12-07T23:10:54.752Z,8.20
2018-12-07T23:13:25.761Z,8.20
2018-12-07T23:15:55.271Z,8.20
2018-12-07T23:18:25.101Z,8.20
2018-12-07T23:20:54.418Z,8.10
2018-12-07T23:23:23.826Z,8.10
2018-12-07T23:25:53.250Z,8.10
2018-12-07T23:28:22.503Z,8.10
2018-12-07T23:30:51.776Z,8.10
2018-12-07T23:33:21.109Z,8.00
2018-12-07T23:35:50.392Z,7.90
2018-12-07T23:38:19.731Z,7.90
2018-12-07T23:40:49.008Z,8.00
2018-12-07T23:43:18.264Z,8.00
2018-12-07T23:45:47.661Z,8.00
2018-12-07T23:48:17.027Z,8.00
2018-12-07T23:50:46.311Z,7.90
2018-12-07T23:53:15.599Z,8.00
2018-12-07T23:55:45.002Z,8.00
2018-12-07T23:58:14.295Z,8.10
